sensor_id;sensor_type;location;lat;lon;timestamp;temperature;humidity
13223;DHT22;6676;45.192;5.722;2023-08-12T00:02:19;24.50;99.90
13223;DHT22;6676;45.192;5.722;2023-08-12T00:05:11;24.40;99.90
13223;DHT22;6676;45.192;5.722;2023-08-12T00:08:02;24.40;99.90
13223;DHT22;6676;45.192;5.722;2023-08-12T00:10:54;24.30;99.90
13223;DHT22;6676;45.192;5.722;2023-08-12T00:13:45;24.30;99.90
13223;DHT22;6676;45.192;5.722;2023-08-12T00:16:36;24.30;99.90
13223;DHT22;6676;45.192;5.722;2023-08-12T00:19:27;24.30;99.90
13223;DHT22;6676;45.192;5.722;2023-08-12T00:22:19;24.40;99.90
13223;DHT22;6676;45.192;5.722;2023-08-12T00:25:10;24.40;99.90
13223;DHT22;6676;45.192;5.722;2023-08-12T00:28:02;24.30;99.90
13223;DHT22;6676;45.192;5.722;2023-08-12T00:30:53;24.20;99.90
13223;DHT22;6676;45.192;5.722;2023-08-12T00:36:24;24.20;99.90
13223;DHT22;6676;45.192;5.722;2023-08-12T00:41:56;24.20;99.90
13223;DHT22;6676;45.192;5.722;2023-08-12T00:47:31;24.00;99.90
13223;DHT22;6676;45.192;5.722;2023-08-12T00:50:22;23.90;99.90
13223;DHT22;6676;45.192;5.722;2023-08-12T00:53:15;23.90;99.90
13223;DHT22;6676;45.192;5.722;2023-08-12T01:01:35;23.90;99.90
13223;DHT22;6676;45.192;5.722;2023-08-12T01:04:26;23.80;99.90
13223;DHT22;6676;45.192;5.722;2023-08-12T01:07:18;23.80;99.90
13223;DHT22;6676;45.192;5.722;2023-08-12T01:10:10;23.70;99.90
13223;DHT22;6676;45.192;5.722;2023-08-12T01:13:08;23.70;99.90
13223;DHT22;6676;45.192;5.722;2023-08-12T01:21:25;23.60;99.90
13223;DHT22;6676;45.192;5.722;2023-08-12T01:27:00;23.70;99.90
13223;DHT22;6676;45.192;5.722;2023-08-12T01:32:34;23.50;99.90
13223;DHT22;6676;45.192;5.722;2023-08-12T01:35:32;23.40;99.90
13223;DHT22;6676;45.192;5.722;2023-08-12T01:41:08;23.40;99.90
13223;DHT22;6676;45.192;5.722;2023-08-12T01:46:43;23.50;99.90
13223;DHT22;6676;45.192;5.722;2023-08-12T01:52:15;23.40;99.90
13223;DHT22;6676;45.192;5.722;2023-08-12T01:55:08;23.30;99.90
13223;DHT22;6676;45.192;5.722;2023-08-12T02:03:18;23.30;99.90
13223;DHT22;6676;45.192;5.722;2023-08-12T02:06:09;23.30;99.90
13223;DHT22;6676;45.192;5.722;2023-08-12T02:11:43;23.30;99.90
13223;DHT22;6676;45.192;5.722;2023-08-12T02:14:35;23.30;99.90
13223;DHT22;6676;45.192;5.722;2023-08-12T02:17:27;23.40;99.90
13223;DHT22;6676;45.192;5.722;2023-08-12T02:20:18;23.40;99.90
13223;DHT22;6676;45.192;5.722;2023-08-12T02:23:09;23.30;99.90
13223;DHT22;6676;45.192;5.722;2023-08-12T02:26:01;23.30;99.90
13223;DHT22;6676;45.192;5.722;2023-08-12T02:28:53;23.20;99.90
13223;DHT22;6676;45.192;5.722;2023-08-12T02:31:44;23.10;99.90
13223;DHT22;6676;45.192;5.722;2023-08-12T02:34:36;23.10;99.90
13223;DHT22;6676;45.192;5.722;2023-08-12T02:37:27;23.00;99.90
13223;DHT22;6676;45.192;5.722;2023-08-12T02:40:18;23.00;99.90
13223;DHT22;6676;45.192;5.722;2023-08-12T03:10:24;23.00;99.90
13223;DHT22;6676;45.192;5.722;2023-08-12T03:27:38;22.90;99.90
13223;DHT22;6676;45.192;5.722;2023-08-12T03:33:20;22.90;99.90
13223;DHT22;6676;45.192;5.722;2023-08-12T03:38:51;22.80;99.90
13223;DHT22;6676;45.192;5.722;2023-08-12T03:41:44;22.70;99.90
13223;DHT22;6676;45.192;5.722;2023-08-12T03:44:36;22.60;99.90
13223;DHT22;6676;45.192;5.722;2023-08-12T03:47:27;22.50;99.90
13223;DHT22;6676;45.192;5.722;2023-08-12T03:50:19;22.40;99.90
13223;DHT22;6676;45.192;5.722;2023-08-12T03:53:10;22.40;99.90
13223;DHT22;6676;45.192;5.722;2023-08-12T04:01:27;22.50;99.90
13223;DHT22;6676;45.192;5.722;2023-08-12T04:04:19;22.50;99.90
13223;DHT22;6676;45.192;5.722;2023-08-12T04:07:10;22.60;99.90
13223;DHT22;6676;45.192;5.722;2023-08-12T04:10:02;22.70;99.90
13223;DHT22;6676;45.192;5.722;2023-08-12T04:12:53;22.70;99.90
13223;DHT22;6676;45.192;5.722;2023-08-12T04:21:06;22.70;99.90
13223;DHT22;6676;45.192;5.722;2023-08-12T04:26:38;22.60;99.90
13223;DHT22;6676;45.192;5.722;2023-08-12T04:29:30;22.60;99.90
13223;DHT22;6676;45.192;5.722;2023-08-12T04:32:21;22.50;99.90
13223;DHT22;6676;45.192;5.722;2023-08-12T04:35:13;22.50;99.90
13223;DHT22;6676;45.192;5.722;2023-08-12T04:38:05;22.40;99.90
13223;DHT22;6676;45.192;5.722;2023-08-12T04:40:56;22.40;99.90
13223;DHT22;6676;45.192;5.722;2023-08-12T04:46:28;22.50;99.90
13223;DHT22;6676;45.192;5.722;2023-08-12T04:49:19;22.50;99.90
13223;DHT22;6676;45.192;5.722;2023-08-12T04:52:13;22.40;99.90
13223;DHT22;6676;45.192;5.722;2023-08-12T04:57:48;22.40;99.90
13223;DHT22;6676;45.192;5.722;2023-08-12T05:00:39;22.40;99.90
13223;DHT22;6676;45.192;5.722;2023-08-12T05:03:33;22.40;99.90
13223;DHT22;6676;45.192;5.722;2023-08-12T05:06:25;22.40;99.90
13223;DHT22;6676;45.192;5.722;2023-08-12T05:09:16;22.40;99.90
13223;DHT22;6676;45.192;5.722;2023-08-12T05:12:09;22.30;99.90
13223;DHT22;6676;45.192;5.722;2023-08-12T05:15:01;22.30;99.90
13223;DHT22;6676;45.192;5.722;2023-08-12T05:17:52;22.30;99.90
13223;DHT22;6676;45.192;5.722;2023-08-12T05:23:22;22.40;99.90
13223;DHT22;6676;45.192;5.722;2023-08-12T05:26:14;22.50;99.90
13223;DHT22;6676;45.192;5.722;2023-08-12T05:29:05;22.60;99.90
13223;DHT22;6676;45.192;5.722;2023-08-12T05:32:04;22.70;99.90
13223;DHT22;6676;45.192;5.722;2023-08-12T05:34:56;22.80;99.90
13223;DHT22;6676;45.192;5.722;2023-08-12T05:37:47;22.80;99.90
13223;DHT22;6676;45.192;5.722;2023-08-12T05:40:40;22.90;99.90
13223;DHT22;6676;45.192;5.722;2023-08-12T05:46:13;23.10;99.90
13223;DHT22;6676;45.192;5.722;2023-08-12T05:52:16;23.20;99.90
13223;DHT22;6676;45.192;5.722;2023-08-12T05:55:08;23.40;99.90
13223;DHT22;6676;45.192;5.722;2023-08-12T05:57:59;23.50;99.90
13223;DHT22;6676;45.192;5.722;2023-08-12T06:00:50;23.50;99.90
13223;DHT22;6676;45.192;5.722;2023-08-12T06:03:42;23.60;99.90
13223;DHT22;6676;45.192;5.722;2023-08-12T06:06:34;23.70;99.90
13223;DHT22;6676;45.192;5.722;2023-08-12T06:09:25;23.80;99.90
13223;DHT22;6676;45.192;5.722;2023-08-12T06:12:17;23.80;99.90
13223;DHT22;6676;45.192;5.722;2023-08-12T06:15:10;23.80;99.90
13223;DHT22;6676;45.192;5.722;2023-08-12T06:20:46;23.90;99.90
13223;DHT22;6676;45.192;5.722;2023-08-12T06:26:17;24.20;99.90
13223;DHT22;6676;45.192;5.722;2023-08-12T06:29:08;24.30;99.90
13223;DHT22;6676;45.192;5.722;2023-08-12T06:32:00;24.20;99.90
13223;DHT22;6676;45.192;5.722;2023-08-12T06:34:51;24.10;99.90
13223;DHT22;6676;45.192;5.722;2023-08-12T06:37:42;24.20;99.90
13223;DHT22;6676;45.192;5.722;2023-08-12T06:40:34;24.10;99.90
13223;DHT22;6676;45.192;5.722;2023-08-12T06:43:25;24.10;99.90
13223;DHT22;6676;45.192;5.722;2023-08-12T06:46:18;24.10;99.90
13223;DHT22;6676;45.192;5.722;2023-08-12T06:49:10;24.20;99.90
13223;DHT22;6676;45.192;5.722;2023-08-12T06:52:01;24.10;99.90
13223;DHT22;6676;45.192;5.722;2023-08-12T06:54:53;24.00;99.90
13223;DHT22;6676;45.192;5.722;2023-08-12T06:57:44;23.90;99.90
13223;DHT22;6676;45.192;5.722;2023-08-12T07:00:35;23.70;99.90
13223;DHT22;6676;45.192;5.722;2023-08-12T07:36:42;24.30;99.90
13223;DHT22;6676;45.192;5.722;2023-08-12T07:39:33;24.60;99.90
13223;DHT22;6676;45.192;5.722;2023-08-12T07:42:28;24.60;99.90
13223;DHT22;6676;45.192;5.722;2023-08-12T07:45:19;24.60;99.90
13223;DHT22;6676;45.192;5.722;2023-08-12T07:48:10;24.70;99.90
13223;DHT22;6676;45.192;5.722;2023-08-12T07:51:01;24.90;99.90
13223;DHT22;6676;45.192;5.722;2023-08-12T07:53:53;24.90;99.90
13223;DHT22;6676;45.192;5.722;2023-08-12T07:56:44;24.90;99.90
13223;DHT22;6676;45.192;5.722;2023-08-12T08:02:22;24.90;99.90
13223;DHT22;6676;45.192;5.722;2023-08-12T08:05:14;25.00;99.90
13223;DHT22;6676;45.192;5.722;2023-08-12T08:08:07;25.20;99.90
13223;DHT22;6676;45.192;5.722;2023-08-12T08:10:58;25.30;99.90
13223;DHT22;6676;45.192;5.722;2023-08-12T08:13:49;25.20;99.90
13223;DHT22;6676;45.192;5.722;2023-08-12T08:32:57;25.30;99.90
13223;DHT22;6676;45.192;5.722;2023-08-12T09:08:06;26.00;99.90
13223;DHT22;6676;45.192;5.722;2023-08-12T09:11:02;26.10;99.90
13223;DHT22;6676;45.192;5.722;2023-08-12T09:18:10;26.30;99.90
13223;DHT22;6676;45.192;5.722;2023-08-12T09:21:04;26.50;99.90
13223;DHT22;6676;45.192;5.722;2023-08-12T09:23:55;26.60;99.90
13223;DHT22;6676;45.192;5.722;2023-08-12T09:46:34;27.10;99.90
13223;DHT22;6676;45.192;5.722;2023-08-12T09:49:26;27.30;99.90
13223;DHT22;6676;45.192;5.722;2023-08-12T09:52:18;27.40;99.90
13223;DHT22;6676;45.192;5.722;2023-08-12T09:57:56;27.70;99.90
13223;DHT22;6676;45.192;5.722;2023-08-12T10:03:28;27.90;99.90
13223;DHT22;6676;45.192;5.722;2023-08-12T10:11:47;28.30;99.90
13223;DHT22;6676;45.192;5.722;2023-08-12T10:17:29;28.50;99.90
13223;DHT22;6676;45.192;5.722;2023-08-12T10:20:23;28.60;99.90
13223;DHT22;6676;45.192;5.722;2023-08-12T10:23:17;28.70;99.90
13223;DHT22;6676;45.192;5.722;2023-08-12T10:26:09;28.90;99.90
13223;DHT22;6676;45.192;5.722;2023-08-12T10:29:01;28.80;99.90
13223;DHT22;6676;45.192;5.722;2023-08-12T10:31:54;28.90;99.90
13223;DHT22;6676;45.192;5.722;2023-08-12T10:37:32;29.10;99.90
13223;DHT22;6676;45.192;5.722;2023-08-12T10:40:22;29.20;99.90
13223;DHT22;6676;45.192;5.722;2023-08-12T10:43:14;29.30;99.90
13223;DHT22;6676;45.192;5.722;2023-08-12T10:51:49;29.80;99.90
13223;DHT22;6676;45.192;5.722;2023-08-12T10:57:38;30.10;99.90
13223;DHT22;6676;45.192;5.722;2023-08-12T11:00:30;30.20;99.90
13223;DHT22;6676;45.192;5.722;2023-08-12T11:03:21;30.30;99.90
13223;DHT22;6676;45.192;5.722;2023-08-12T11:06:13;30.50;99.90
13223;DHT22;6676;45.192;5.722;2023-08-12T11:09:06;30.60;99.90
13223;DHT22;6676;45.192;5.722;2023-08-12T11:12:00;30.80;99.90
13223;DHT22;6676;45.192;5.722;2023-08-12T11:17:37;31.00;99.90
13223;DHT22;6676;45.192;5.722;2023-08-12T11:20:29;31.20;99.90
13223;DHT22;6676;45.192;5.722;2023-08-12T11:23:21;31.20;99.90
13223;DHT22;6676;45.192;5.722;2023-08-12T11:31:35;31.60;99.90
13223;DHT22;6676;45.192;5.722;2023-08-12T11:34:26;31.70;99.90
13223;DHT22;6676;45.192;5.722;2023-08-12T11:37:18;31.80;99.90
13223;DHT22;6676;45.192;5.722;2023-08-12T11:40:12;31.80;99.90
13223;DHT22;6676;45.192;5.722;2023-08-12T11:43:05;31.90;99.90
13223;DHT22;6676;45.192;5.722;2023-08-12T11:45:57;32.10;99.90
13223;DHT22;6676;45.192;5.722;2023-08-12T11:48:50;32.30;99.60
13223;DHT22;6676;45.192;5.722;2023-08-12T11:51:42;32.50;99.30
13223;DHT22;6676;45.192;5.722;2023-08-12T11:57:13;32.80;98.20
13223;DHT22;6676;45.192;5.722;2023-08-12T12:00:12;32.80;97.00
13223;DHT22;6676;45.192;5.722;2023-08-12T12:03:07;32.80;96.80
13223;DHT22;6676;45.192;5.722;2023-08-12T12:05:59;32.90;96.50
13223;DHT22;6676;45.192;5.722;2023-08-12T12:08:53;33.00;95.80
13223;DHT22;6676;45.192;5.722;2023-08-12T12:11:45;33.00;96.60
13223;DHT22;6676;45.192;5.722;2023-08-12T12:14:37;33.00;97.40
13223;DHT22;6676;45.192;5.722;2023-08-12T12:17:29;32.80;97.90
13223;DHT22;6676;45.192;5.722;2023-08-12T12:36:15;32.30;97.20
13223;DHT22;6676;45.192;5.722;2023-08-12T12:39:07;32.30;97.00
13223;DHT22;6676;45.192;5.722;2023-08-12T12:41:58;32.30;97.50
13223;DHT22;6676;45.192;5.722;2023-08-12T12:44:49;32.40;96.60
13223;DHT22;6676;45.192;5.722;2023-08-12T12:47:41;32.60;96.80
13223;DHT22;6676;45.192;5.722;2023-08-12T12:50:33;32.70;96.60
13223;DHT22;6676;45.192;5.722;2023-08-12T12:53:24;32.90;96.70
13223;DHT22;6676;45.192;5.722;2023-08-12T12:56:16;33.00;96.80
13223;DHT22;6676;45.192;5.722;2023-08-12T13:02:54;33.50;95.30
13223;DHT22;6676;45.192;5.722;2023-08-12T13:05:45;33.70;94.70
13223;DHT22;6676;45.192;5.722;2023-08-12T13:11:18;33.70;94.30
13223;DHT22;6676;45.192;5.722;2023-08-12T13:14:10;33.50;94.20
13223;DHT22;6676;45.192;5.722;2023-08-12T13:17:01;33.40;93.90
13223;DHT22;6676;45.192;5.722;2023-08-12T13:19:54;33.30;93.70
13223;DHT22;6676;45.192;5.722;2023-08-12T13:22:45;33.30;93.50
13223;DHT22;6676;45.192;5.722;2023-08-12T13:25:37;33.20;93.10
13223;DHT22;6676;45.192;5.722;2023-08-12T13:28:28;33.30;93.00
13223;DHT22;6676;45.192;5.722;2023-08-12T13:31:20;33.50;92.90
13223;DHT22;6676;45.192;5.722;2023-08-12T13:36:58;33.90;91.90
13223;DHT22;6676;45.192;5.722;2023-08-12T13:39:50;33.90;91.80
13223;DHT22;6676;45.192;5.722;2023-08-12T13:45:25;33.90;91.20
13223;DHT22;6676;45.192;5.722;2023-08-12T13:48:17;34.00;91.20
13223;DHT22;6676;45.192;5.722;2023-08-12T13:51:09;33.80;91.10
13223;DHT22;6676;45.192;5.722;2023-08-12T13:54:00;33.60;90.40
13223;DHT22;6676;45.192;5.722;2023-08-12T13:56:52;33.50;90.80
13223;DHT22;6676;45.192;5.722;2023-08-12T13:59:43;33.40;90.60
13223;DHT22;6676;45.192;5.722;2023-08-12T14:02:35;33.30;90.70
13223;DHT22;6676;45.192;5.722;2023-08-12T14:05:27;33.30;90.20
13223;DHT22;6676;45.192;5.722;2023-08-12T14:08:19;33.40;89.50
13223;DHT22;6676;45.192;5.722;2023-08-12T14:11:11;33.50;88.10
13223;DHT22;6676;45.192;5.722;2023-08-12T14:14:03;33.50;87.60
13223;DHT22;6676;45.192;5.722;2023-08-12T14:16:55;33.50;86.70
13223;DHT22;6676;45.192;5.722;2023-08-12T14:22:34;33.80;85.80
13223;DHT22;6676;45.192;5.722;2023-08-12T14:25:26;34.30;85.90
13223;DHT22;6676;45.192;5.722;2023-08-12T14:28:17;34.30;84.70
13223;DHT22;6676;45.192;5.722;2023-08-12T14:31:10;34.20;85.00
13223;DHT22;6676;45.192;5.722;2023-08-12T14:34:01;34.00;84.90
13223;DHT22;6676;45.192;5.722;2023-08-12T14:36:53;33.90;85.10
13223;DHT22;6676;45.192;5.722;2023-08-12T14:39:46;33.70;85.90
13223;DHT22;6676;45.192;5.722;2023-08-12T14:58:25;33.90;84.50
13223;DHT22;6676;45.192;5.722;2023-08-12T15:01:16;34.00;82.80
13223;DHT22;6676;45.192;5.722;2023-08-12T15:04:07;34.00;81.90
13223;DHT22;6676;45.192;5.722;2023-08-12T15:06:59;34.00;81.70
13223;DHT22;6676;45.192;5.722;2023-08-12T15:12:40;34.10;82.00
13223;DHT22;6676;45.192;5.722;2023-08-12T15:18:51;34.10;82.20
13223;DHT22;6676;45.192;5.722;2023-08-12T15:21:42;34.00;81.90
13223;DHT22;6676;45.192;5.722;2023-08-12T15:24:34;34.00;81.30
13223;DHT22;6676;45.192;5.722;2023-08-12T15:27:25;33.90;80.90
13223;DHT22;6676;45.192;5.722;2023-08-12T15:30:16;33.90;81.50
13223;DHT22;6676;45.192;5.722;2023-08-12T15:38:42;34.10;81.70
13223;DHT22;6676;45.192;5.722;2023-08-12T15:41:34;33.70;82.20
13223;DHT22;6676;45.192;5.722;2023-08-12T15:47:09;33.40;83.30
13223;DHT22;6676;45.192;5.722;2023-08-12T15:50:02;33.30;82.80
13223;DHT22;6676;45.192;5.722;2023-08-12T15:52:53;33.30;83.10
13223;DHT22;6676;45.192;5.722;2023-08-12T15:55:44;33.20;83.50
13223;DHT22;6676;45.192;5.722;2023-08-12T15:58:35;33.30;83.10
13223;DHT22;6676;45.192;5.722;2023-08-12T16:01:28;33.80;83.10
13223;DHT22;6676;45.192;5.722;2023-08-12T16:07:13;38.10;78.30
13223;DHT22;6676;45.192;5.722;2023-08-12T16:10:07;38.80;75.40
13223;DHT22;6676;45.192;5.722;2023-08-12T16:15:40;36.50;78.20
13223;DHT22;6676;45.192;5.722;2023-08-12T16:18:31;35.80;80.50
13223;DHT22;6676;45.192;5.722;2023-08-12T16:21:23;35.50;80.10
13223;DHT22;6676;45.192;5.722;2023-08-12T16:24:14;35.40;79.10
13223;DHT22;6676;45.192;5.722;2023-08-12T16:27:06;35.20;79.80
13223;DHT22;6676;45.192;5.722;2023-08-12T16:32:38;36.10;76.60
13223;DHT22;6676;45.192;5.722;2023-08-12T16:35:29;37.10;73.70
13223;DHT22;6676;45.192;5.722;2023-08-12T16:38:21;37.10;74.40
13223;DHT22;6676;45.192;5.722;2023-08-12T16:43:57;40.10;71.70
13223;DHT22;6676;45.192;5.722;2023-08-12T16:46:48;41.20;68.40
13223;DHT22;6676;45.192;5.722;2023-08-12T16:49:39;41.30;67.10
13223;DHT22;6676;45.192;5.722;2023-08-12T16:52:31;41.50;66.50
13223;DHT22;6676;45.192;5.722;2023-08-12T16:58:09;41.70;62.70
13223;DHT22;6676;45.192;5.722;2023-08-12T17:01:00;41.90;62.30
13223;DHT22;6676;45.192;5.722;2023-08-12T17:03:51;42.40;61.80
13223;DHT22;6676;45.192;5.722;2023-08-12T17:06:43;42.60;61.30
13223;DHT22;6676;45.192;5.722;2023-08-12T17:12:17;42.60;60.80
13223;DHT22;6676;45.192;5.722;2023-08-12T17:18:24;42.10;60.60
13223;DHT22;6676;45.192;5.722;2023-08-12T17:21:16;41.10;61.30
13223;DHT22;6676;45.192;5.722;2023-08-12T17:27:23;39.90;62.80
13223;DHT22;6676;45.192;5.722;2023-08-12T17:30:15;39.30;64.10
13223;DHT22;6676;45.192;5.722;2023-08-12T17:33:07;38.60;63.80
13223;DHT22;6676;45.192;5.722;2023-08-12T17:35:58;38.70;65.00
13223;DHT22;6676;45.192;5.722;2023-08-12T17:38:49;38.80;65.10
13223;DHT22;6676;45.192;5.722;2023-08-12T17:57:56;35.50;69.30
13223;DHT22;6676;45.192;5.722;2023-08-12T18:18:39;33.10;76.40
13223;DHT22;6676;45.192;5.722;2023-08-12T18:21:30;32.60;78.10
13223;DHT22;6676;45.192;5.722;2023-08-12T18:43:09;30.90;86.30
13223;DHT22;6676;45.192;5.722;2023-08-12T18:46:00;30.90;86.10
13223;DHT22;6676;45.192;5.722;2023-08-12T18:48:51;30.80;88.20
13223;DHT22;6676;45.192;5.722;2023-08-12T18:51:43;30.60;89.50
13223;DHT22;6676;45.192;5.722;2023-08-12T18:54:35;30.50;90.20
13223;DHT22;6676;45.192;5.722;2023-08-12T18:57:26;30.20;90.00
13223;DHT22;6676;45.192;5.722;2023-08-12T19:00:20;30.00;91.00
13223;DHT22;6676;45.192;5.722;2023-08-12T19:05:58;29.70;91.90
13223;DHT22;6676;45.192;5.722;2023-08-12T19:08:49;29.60;92.10
13223;DHT22;6676;45.192;5.722;2023-08-12T19:11:41;29.50;92.40
13223;DHT22;6676;45.192;5.722;2023-08-12T19:14:32;29.40;92.80
13223;DHT22;6676;45.192;5.722;2023-08-12T19:17:24;29.30;92.90
13223;DHT22;6676;45.192;5.722;2023-08-12T19:20:16;29.20;93.00
13223;DHT22;6676;45.192;5.722;2023-08-12T19:23:07;29.20;93.60
13223;DHT22;6676;45.192;5.722;2023-08-12T19:25:59;29.10;93.80
13223;DHT22;6676;45.192;5.722;2023-08-12T19:28:51;29.10;93.70
13223;DHT22;6676;45.192;5.722;2023-08-12T19:31:44;29.10;93.90
13223;DHT22;6676;45.192;5.722;2023-08-12T19:34:35;29.00;94.20
13223;DHT22;6676;45.192;5.722;2023-08-12T19:37:26;28.90;94.70
13223;DHT22;6676;45.192;5.722;2023-08-12T19:40:17;28.60;95.90
13223;DHT22;6676;45.192;5.722;2023-08-12T19:47:43;28.40;96.60
13223;DHT22;6676;45.192;5.722;2023-08-12T19:53:29;28.30;97.30
13223;DHT22;6676;45.192;5.722;2023-08-12T19:56:25;28.20;97.30
13223;DHT22;6676;45.192;5.722;2023-08-12T19:59:18;28.20;97.40
13223;DHT22;6676;45.192;5.722;2023-08-12T20:02:10;28.10;97.60
13223;DHT22;6676;45.192;5.722;2023-08-12T20:05:12;28.10;97.80
13223;DHT22;6676;45.192;5.722;2023-08-12T20:08:10;28.00;98.20
13223;DHT22;6676;45.192;5.722;2023-08-12T20:11:03;28.00;98.40
13223;DHT22;6676;45.192;5.722;2023-08-12T20:13:54;28.00;99.00
13223;DHT22;6676;45.192;5.722;2023-08-12T20:16:49;27.90;99.60
13223;DHT22;6676;45.192;5.722;2023-08-12T20:19:43;27.70;99.90
13223;DHT22;6676;45.192;5.722;2023-08-12T20:22:37;27.70;99.90
13223;DHT22;6676;45.192;5.722;2023-08-12T20:25:33;27.60;99.90
13223;DHT22;6676;45.192;5.722;2023-08-12T20:28:28;27.60;99.90
13223;DHT22;6676;45.192;5.722;2023-08-12T20:31:26;27.50;99.90
13223;DHT22;6676;45.192;5.722;2023-08-12T20:52:31;27.00;99.90
13223;DHT22;6676;45.192;5.722;2023-08-12T20:55:26;26.90;99.90
13223;DHT22;6676;45.192;5.722;2023-08-12T20:58:17;26.80;99.90
13223;DHT22;6676;45.192;5.722;2023-08-12T21:01:12;26.80;99.90
13223;DHT22;6676;45.192;5.722;2023-08-12T21:04:08;26.70;99.90
13223;DHT22;6676;45.192;5.722;2023-08-12T21:07:01;26.80;99.90
13223;DHT22;6676;45.192;5.722;2023-08-12T21:12:41;26.80;99.90
13223;DHT22;6676;45.192;5.722;2023-08-12T21:18:14;26.30;99.90
13223;DHT22;6676;45.192;5.722;2023-08-12T21:40:16;26.50;99.90
13223;DHT22;6676;45.192;5.722;2023-08-12T21:43:08;26.30;99.90
13223;DHT22;6676;45.192;5.722;2023-08-12T21:45:59;26.10;99.90
13223;DHT22;6676;45.192;5.722;2023-08-12T21:48:51;26.10;99.90
13223;DHT22;6676;45.192;5.722;2023-08-12T21:51:42;26.00;99.90
13223;DHT22;6676;45.192;5.722;2023-08-12T21:57:16;26.00;99.90
13223;DHT22;6676;45.192;5.722;2023-08-12T22:00:09;25.90;99.90
13223;DHT22;6676;45.192;5.722;2023-08-12T22:03:03;25.90;99.90
13223;DHT22;6676;45.192;5.722;2023-08-12T22:05:55;25.90;99.90
13223;DHT22;6676;45.192;5.722;2023-08-12T22:08:46;25.90;99.90
13223;DHT22;6676;45.192;5.722;2023-08-12T22:11:37;25.80;99.90
13223;DHT22;6676;45.192;5.722;2023-08-12T22:18:12;25.70;99.90
13223;DHT22;6676;45.192;5.722;2023-08-12T22:21:03;25.60;99.90
13223;DHT22;6676;45.192;5.722;2023-08-12T22:23:55;25.60;99.90
13223;DHT22;6676;45.192;5.722;2023-08-12T22:26:47;25.60;99.90
13223;DHT22;6676;45.192;5.722;2023-08-12T22:29:39;25.70;99.90
13223;DHT22;6676;45.192;5.722;2023-08-12T22:32:32;25.70;99.90
13223;DHT22;6676;45.192;5.722;2023-08-12T22:35:23;25.60;99.90
13223;DHT22;6676;45.192;5.722;2023-08-12T22:38:15;25.50;99.90
13223;DHT22;6676;45.192;5.722;2023-08-12T22:41:06;25.50;99.90
13223;DHT22;6676;45.192;5.722;2023-08-12T22:43:58;25.50;99.90
13223;DHT22;6676;45.192;5.722;2023-08-12T22:46:49;25.40;99.90
13223;DHT22;6676;45.192;5.722;2023-08-12T22:49:41;25.40;99.90
13223;DHT22;6676;45.192;5.722;2023-08-12T22:52:33;25.40;99.90
13223;DHT22;6676;45.192;5.722;2023-08-12T22:55:27;25.30;99.90
13223;DHT22;6676;45.192;5.722;2023-08-12T22:58:18;25.30;99.90
13223;DHT22;6676;45.192;5.722;2023-08-12T23:01:09;25.30;99.90
13223;DHT22;6676;45.192;5.722;2023-08-12T23:04:01;25.30;99.90
13223;DHT22;6676;45.192;5.722;2023-08-12T23:06:53;25.30;99.90
13223;DHT22;6676;45.192;5.722;2023-08-12T23:09:44;25.30;99.90
13223;DHT22;6676;45.192;5.722;2023-08-12T23:12:36;25.30;99.90
13223;DHT22;6676;45.192;5.722;2023-08-12T23:15:28;25.20;99.90
13223;DHT22;6676;45.192;5.722;2023-08-12T23:18:19;25.20;99.90
13223;DHT22;6676;45.192;5.722;2023-08-12T23:21:11;25.20;99.90
13223;DHT22;6676;45.192;5.722;2023-08-12T23:24:03;25.20;99.90
13223;DHT22;6676;45.192;5.722;2023-08-12T23:26:55;25.30;99.90
13223;DHT22;6676;45.192;5.722;2023-08-12T23:29:47;25.30;99.90
13223;DHT22;6676;45.192;5.722;2023-08-12T23:32:38;25.30;99.90
13223;DHT22;6676;45.192;5.722;2023-08-12T23:35:30;25.20;99.90
13223;DHT22;6676;45.192;5.722;2023-08-12T23:38:21;25.20;99.90
13223;DHT22;6676;45.192;5.722;2023-08-12T23:41:13;25.10;99.90
13223;DHT22;6676;45.192;5.722;2023-08-12T23:44:05;25.20;99.90
13223;DHT22;6676;45.192;5.722;2023-08-12T23:46:58;25.20;99.90
13223;DHT22;6676;45.192;5.722;2023-08-12T23:49:50;25.20;99.90
13223;DHT22;6676;45.192;5.722;2023-08-12T23:52:42;25.20;99.90
13223;DHT22;6676;45.192;5.722;2023-08-12T23:55:34;25.20;99.90
13223;DHT22;6676;45.192;5.722;2023-08-12T23:58:25;25.10;99.90
